sensor_id;sensor_type;location;lat;lon;timestamp;temperature;humidity
7606;DHT22;3844;53.360;9.738;2022-10-31T00:00:13;9.40;95.70
7606;DHT22;3844;53.360;9.738;2022-10-31T00:04:15;9.40;95.70
7606;DHT22;3844;53.360;9.738;2022-10-31T00:06:16;9.40;95.70
7606;DHT22;3844;53.360;9.738;2022-10-31T00:08:20;9.40;95.70
7606;DHT22;3844;53.360;9.738;2022-10-31T00:12:25;9.40;95.70
7606;DHT22;3844;53.360;9.738;2022-10-31T00:14:26;9.40;95.70
7606;DHT22;3844;53.360;9.738;2022-10-31T00:16:27;9.40;95.70
7606;DHT22;3844;53.360;9.738;2022-10-31T00:18:31;9.40;95.70
7606;DHT22;3844;53.360;9.738;2022-10-31T00:20:32;9.40;95.70
7606;DHT22;3844;53.360;9.738;2022-10-31T00:24:34;9.40;95.70
7606;DHT22;3844;53.360;9.738;2022-10-31T00:26:34;9.40;95.70
7606;DHT22;3844;53.360;9.738;2022-10-31T00:30:36;9.40;95.70
7606;DHT22;3844;53.360;9.738;2022-10-31T00:32:37;9.40;95.70
7606;DHT22;3844;53.360;9.738;2022-10-31T00:38:40;9.50;95.70
7606;DHT22;3844;53.360;9.738;2022-10-31T00:40:41;9.50;95.70
7606;DHT22;3844;53.360;9.738;2022-10-31T00:42:41;9.50;95.70
7606;DHT22;3844;53.360;9.738;2022-10-31T00:44:42;9.50;95.70
7606;DHT22;3844;53.360;9.738;2022-10-31T00:46:43;9.50;95.70
7606;DHT22;3844;53.360;9.738;2022-10-31T00:48:44;9.50;95.70
7606;DHT22;3844;53.360;9.738;2022-10-31T00:50:45;9.40;95.70
7606;DHT22;3844;53.360;9.738;2022-10-31T00:52:45;9.40;95.70
7606;DHT22;3844;53.360;9.738;2022-10-31T00:56:47;9.40;95.70
7606;DHT22;3844;53.360;9.738;2022-10-31T01:00:49;9.40;95.70
7606;DHT22;3844;53.360;9.738;2022-10-31T01:02:56;9.30;95.70
7606;DHT22;3844;53.360;9.738;2022-10-31T01:04:57;9.30;95.70
7606;DHT22;3844;53.360;9.738;2022-10-31T01:06:58;9.30;95.70
7606;DHT22;3844;53.360;9.738;2022-10-31T01:11:13;9.20;95.70
7606;DHT22;3844;53.360;9.738;2022-10-31T01:13:14;9.20;95.70
7606;DHT22;3844;53.360;9.738;2022-10-31T01:15:20;9.20;95.70
7606;DHT22;3844;53.360;9.738;2022-10-31T01:17:21;9.20;95.70
7606;DHT22;3844;53.360;9.738;2022-10-31T01:21:25;9.30;95.70
7606;DHT22;3844;53.360;9.738;2022-10-31T01:23:26;9.30;95.70
7606;DHT22;3844;53.360;9.738;2022-10-31T01:25:27;9.30;95.70
7606;DHT22;3844;53.360;9.738;2022-10-31T01:29:29;9.20;95.70
7606;DHT22;3844;53.360;9.738;2022-10-31T01:31:33;9.20;95.70
7606;DHT22;3844;53.360;9.738;2022-10-31T01:33:35;9.20;95.70
7606;DHT22;3844;53.360;9.738;2022-10-31T01:35:36;9.10;95.70
7606;DHT22;3844;53.360;9.738;2022-10-31T01:37:36;9.20;95.70
7606;DHT22;3844;53.360;9.738;2022-10-31T01:39:37;9.20;95.70
7606;DHT22;3844;53.360;9.738;2022-10-31T01:41:40;9.20;95.70
7606;DHT22;3844;53.360;9.738;2022-10-31T01:43:53;9.20;95.70
7606;DHT22;3844;53.360;9.738;2022-10-31T01:45:54;9.20;95.70
7606;DHT22;3844;53.360;9.738;2022-10-31T01:47:55;9.20;95.70
7606;DHT22;3844;53.360;9.738;2022-10-31T01:49:59;9.20;95.70
7606;DHT22;3844;53.360;9.738;2022-10-31T01:52:08;9.10;95.70
7606;DHT22;3844;53.360;9.738;2022-10-31T01:54:14;9.10;95.70
7606;DHT22;3844;53.360;9.738;2022-10-31T01:56:16;9.10;95.70
7606;DHT22;3844;53.360;9.738;2022-10-31T01:58:24;9.10;95.70
7606;DHT22;3844;53.360;9.738;2022-10-31T02:00:25;9.10;95.70
7606;DHT22;3844;53.360;9.738;2022-10-31T02:02:27;9.10;95.70
7606;DHT22;3844;53.360;9.738;2022-10-31T02:04:30;9.10;95.70
7606;DHT22;3844;53.360;9.738;2022-10-31T02:08:33;9.10;95.70
7606;DHT22;3844;53.360;9.738;2022-10-31T02:10:36;9.10;95.70
7606;DHT22;3844;53.360;9.738;2022-10-31T02:12:37;9.10;95.70
7606;DHT22;3844;53.360;9.738;2022-10-31T02:14:39;9.10;95.70
7606;DHT22;3844;53.360;9.738;2022-10-31T02:16:40;9.10;95.70
7606;DHT22;3844;53.360;9.738;2022-10-31T02:18:41;9.10;95.70
7606;DHT22;3844;53.360;9.738;2022-10-31T02:20:56;9.10;95.70
7606;DHT22;3844;53.360;9.738;2022-10-31T02:23:20;9.10;95.70
7606;DHT22;3844;53.360;9.738;2022-10-31T02:30:21;8.90;95.70
7606;DHT22;3844;53.360;9.738;2022-10-31T02:32:36;8.90;95.70
7606;DHT22;3844;53.360;9.738;2022-10-31T02:37:14;8.80;95.70
7606;DHT22;3844;53.360;9.738;2022-10-31T02:39:51;8.80;95.70
7606;DHT22;3844;53.360;9.738;2022-10-31T02:44:44;8.80;95.70
7606;DHT22;3844;53.360;9.738;2022-10-31T02:46:54;8.70;95.70
7606;DHT22;3844;53.360;9.738;2022-10-31T02:49:03;8.70;95.70
7606;DHT22;3844;53.360;9.738;2022-10-31T02:53:54;8.70;95.70
7606;DHT22;3844;53.360;9.738;2022-10-31T02:56:15;8.70;95.70
7606;DHT22;3844;53.360;9.738;2022-10-31T03:13:16;8.60;95.70
7606;DHT22;3844;53.360;9.738;2022-10-31T03:15:35;8.50;95.70
7606;DHT22;3844;53.360;9.738;2022-10-31T03:17:56;8.50;95.70
7606;DHT22;3844;53.360;9.738;2022-10-31T03:20:00;8.50;95.70
7606;DHT22;3844;53.360;9.738;2022-10-31T03:22:25;8.60;95.70
7606;DHT22;3844;53.360;9.738;2022-10-31T03:24:31;8.60;95.70
7606;DHT22;3844;53.360;9.738;2022-10-31T03:26:32;8.60;95.70
7606;DHT22;3844;53.360;9.738;2022-10-31T03:28:41;8.60;95.70
7606;DHT22;3844;53.360;9.738;2022-10-31T03:30:44;8.60;95.70
7606;DHT22;3844;53.360;9.738;2022-10-31T03:32:54;8.50;95.70
7606;DHT22;3844;53.360;9.738;2022-10-31T03:34:58;8.50;95.70
7606;DHT22;3844;53.360;9.738;2022-10-31T03:37:04;8.50;95.70
7606;DHT22;3844;53.360;9.738;2022-10-31T03:39:09;8.50;95.70
7606;DHT22;3844;53.360;9.738;2022-10-31T03:41:14;8.50;95.70
7606;DHT22;3844;53.360;9.738;2022-10-31T03:43:21;8.60;95.70
7606;DHT22;3844;53.360;9.738;2022-10-31T03:45:30;8.70;95.70
7606;DHT22;3844;53.360;9.738;2022-10-31T03:47:32;8.80;95.70
7606;DHT22;3844;53.360;9.738;2022-10-31T03:49:34;8.80;95.70
7606;DHT22;3844;53.360;9.738;2022-10-31T03:54:08;8.90;95.60
7606;DHT22;3844;53.360;9.738;2022-10-31T03:56:39;9.00;95.60
7606;DHT22;3844;53.360;9.738;2022-10-31T03:58:48;9.10;95.50
7606;DHT22;3844;53.360;9.738;2022-10-31T04:00:56;9.10;95.60
7606;DHT22;3844;53.360;9.738;2022-10-31T04:03:03;9.20;95.40
7606;DHT22;3844;53.360;9.738;2022-10-31T04:05:05;9.20;95.40
7606;DHT22;3844;53.360;9.738;2022-10-31T04:07:08;9.30;95.30
7606;DHT22;3844;53.360;9.738;2022-10-31T04:09:10;9.40;95.30
7606;DHT22;3844;53.360;9.738;2022-10-31T04:11:12;9.40;95.30
7606;DHT22;3844;53.360;9.738;2022-10-31T04:13:17;9.50;95.30
7606;DHT22;3844;53.360;9.738;2022-10-31T04:15:20;9.60;95.30
7606;DHT22;3844;53.360;9.738;2022-10-31T04:17:23;9.60;95.30
7606;DHT22;3844;53.360;9.738;2022-10-31T04:19:25;9.70;95.00
7606;DHT22;3844;53.360;9.738;2022-10-31T04:21:28;9.80;95.10
7606;DHT22;3844;53.360;9.738;2022-10-31T04:23:29;9.80;95.00
7606;DHT22;3844;53.360;9.738;2022-10-31T04:25:30;9.80;95.00
7606;DHT22;3844;53.360;9.738;2022-10-31T04:27:31;9.90;95.00
7606;DHT22;3844;53.360;9.738;2022-10-31T04:29:32;9.90;94.80
7606;DHT22;3844;53.360;9.738;2022-10-31T04:31:32;10.00;94.80
7606;DHT22;3844;53.360;9.738;2022-10-31T04:35:34;10.20;94.70
7606;DHT22;3844;53.360;9.738;2022-10-31T04:37:35;10.20;94.70
7606;DHT22;3844;53.360;9.738;2022-10-31T04:41:36;10.20;94.80
7606;DHT22;3844;53.360;9.738;2022-10-31T04:45:38;10.30;94.60
7606;DHT22;3844;53.360;9.738;2022-10-31T04:47:39;10.30;94.50
7606;DHT22;3844;53.360;9.738;2022-10-31T04:49:40;10.40;94.50
7606;DHT22;3844;53.360;9.738;2022-10-31T04:51:40;10.50;94.50
7606;DHT22;3844;53.360;9.738;2022-10-31T04:53:41;10.50;94.40
7606;DHT22;3844;53.360;9.738;2022-10-31T04:55:41;10.60;94.30
7606;DHT22;3844;53.360;9.738;2022-10-31T04:57:43;10.60;94.30
7606;DHT22;3844;53.360;9.738;2022-10-31T04:59:44;10.60;94.30
7606;DHT22;3844;53.360;9.738;2022-10-31T05:01:45;10.70;94.30
7606;DHT22;3844;53.360;9.738;2022-10-31T05:03:46;10.70;94.30
7606;DHT22;3844;53.360;9.738;2022-10-31T05:05:47;10.70;94.30
7606;DHT22;3844;53.360;9.738;2022-10-31T05:07:48;10.70;94.30
7606;DHT22;3844;53.360;9.738;2022-10-31T05:09:49;10.70;94.30
7606;DHT22;3844;53.360;9.738;2022-10-31T05:11:50;10.70;94.20
7606;DHT22;3844;53.360;9.738;2022-10-31T05:13:50;10.70;94.10
7606;DHT22;3844;53.360;9.738;2022-10-31T05:15:51;10.70;94.10
7606;DHT22;3844;53.360;9.738;2022-10-31T05:17:52;10.80;94.10
7606;DHT22;3844;53.360;9.738;2022-10-31T05:19:53;10.80;94.10
7606;DHT22;3844;53.360;9.738;2022-10-31T05:21:54;10.80;94.00
7606;DHT22;3844;53.360;9.738;2022-10-31T05:23:55;10.80;94.00
7606;DHT22;3844;53.360;9.738;2022-10-31T05:25:55;10.90;93.90
7606;DHT22;3844;53.360;9.738;2022-10-31T05:27:56;10.90;93.90
7606;DHT22;3844;53.360;9.738;2022-10-31T05:29:57;11.00;94.00
7606;DHT22;3844;53.360;9.738;2022-10-31T05:31:58;11.00;93.80
7606;DHT22;3844;53.360;9.738;2022-10-31T05:33:58;11.00;93.80
7606;DHT22;3844;53.360;9.738;2022-10-31T05:35:59;11.00;93.70
7606;DHT22;3844;53.360;9.738;2022-10-31T05:38:00;11.10;93.70
7606;DHT22;3844;53.360;9.738;2022-10-31T05:40:02;11.10;93.70
7606;DHT22;3844;53.360;9.738;2022-10-31T05:42:03;11.10;93.70
7606;DHT22;3844;53.360;9.738;2022-10-31T05:44:03;11.20;93.60
7606;DHT22;3844;53.360;9.738;2022-10-31T05:46:04;11.20;93.50
7606;DHT22;3844;53.360;9.738;2022-10-31T05:48:05;11.30;93.50
7606;DHT22;3844;53.360;9.738;2022-10-31T05:50:06;11.30;93.50
7606;DHT22;3844;53.360;9.738;2022-10-31T05:52:07;11.30;93.60
7606;DHT22;3844;53.360;9.738;2022-10-31T05:54:08;11.30;93.50
7606;DHT22;3844;53.360;9.738;2022-10-31T05:56:09;11.30;93.50
7606;DHT22;3844;53.360;9.738;2022-10-31T05:58:11;11.40;93.50
7606;DHT22;3844;53.360;9.738;2022-10-31T06:00:12;11.40;93.40
7606;DHT22;3844;53.360;9.738;2022-10-31T06:02:13;11.50;93.30
7606;DHT22;3844;53.360;9.738;2022-10-31T06:04:13;11.50;93.30
7606;DHT22;3844;53.360;9.738;2022-10-31T06:08:15;11.50;93.30
7606;DHT22;3844;53.360;9.738;2022-10-31T06:10:16;11.50;93.30
7606;DHT22;3844;53.360;9.738;2022-10-31T06:12:16;11.50;93.20
7606;DHT22;3844;53.360;9.738;2022-10-31T06:16:18;11.50;93.20
7606;DHT22;3844;53.360;9.738;2022-10-31T06:18:19;11.50;93.10
7606;DHT22;3844;53.360;9.738;2022-10-31T06:20:19;11.60;93.10
7606;DHT22;3844;53.360;9.738;2022-10-31T06:22:20;11.60;93.00
7606;DHT22;3844;53.360;9.738;2022-10-31T06:24:20;11.70;93.00
7606;DHT22;3844;53.360;9.738;2022-10-31T06:28:22;11.70;93.00
7606;DHT22;3844;53.360;9.738;2022-10-31T06:32:24;11.80;93.00
7606;DHT22;3844;53.360;9.738;2022-10-31T06:34:24;11.80;92.90
7606;DHT22;3844;53.360;9.738;2022-10-31T06:36:25;11.90;92.90
7606;DHT22;3844;53.360;9.738;2022-10-31T06:38:27;11.90;92.80
7606;DHT22;3844;53.360;9.738;2022-10-31T06:40:28;12.00;92.80
7606;DHT22;3844;53.360;9.738;2022-10-31T06:42:28;12.00;92.80
7606;DHT22;3844;53.360;9.738;2022-10-31T06:44:29;12.00;92.70
7606;DHT22;3844;53.360;9.738;2022-10-31T06:46:30;12.00;92.70
7606;DHT22;3844;53.360;9.738;2022-10-31T06:48:31;12.00;92.80
7606;DHT22;3844;53.360;9.738;2022-10-31T06:50:32;12.00;92.70
7606;DHT22;3844;53.360;9.738;2022-10-31T06:52:32;12.00;92.70
7606;DHT22;3844;53.360;9.738;2022-10-31T06:54:33;12.00;92.70
7606;DHT22;3844;53.360;9.738;2022-10-31T06:56:34;12.00;92.60
7606;DHT22;3844;53.360;9.738;2022-10-31T06:58:35;12.00;92.60
7606;DHT22;3844;53.360;9.738;2022-10-31T07:00:36;12.00;92.60
7606;DHT22;3844;53.360;9.738;2022-10-31T07:02:37;12.10;92.60
7606;DHT22;3844;53.360;9.738;2022-10-31T07:04:38;12.10;92.60
7606;DHT22;3844;53.360;9.738;2022-10-31T07:06:38;12.10;92.50
7606;DHT22;3844;53.360;9.738;2022-10-31T07:08:39;12.10;92.50
7606;DHT22;3844;53.360;9.738;2022-10-31T07:10:41;12.20;92.50
7606;DHT22;3844;53.360;9.738;2022-10-31T07:12:41;12.20;92.50
7606;DHT22;3844;53.360;9.738;2022-10-31T07:14:42;12.20;92.40
7606;DHT22;3844;53.360;9.738;2022-10-31T07:16:43;12.20;92.40
7606;DHT22;3844;53.360;9.738;2022-10-31T07:18:44;12.20;92.40
7606;DHT22;3844;53.360;9.738;2022-10-31T07:20:44;12.30;92.40
7606;DHT22;3844;53.360;9.738;2022-10-31T07:22:45;12.30;92.40
7606;DHT22;3844;53.360;9.738;2022-10-31T07:24:46;12.40;92.40
7606;DHT22;3844;53.360;9.738;2022-10-31T07:26:47;12.40;92.40
7606;DHT22;3844;53.360;9.738;2022-10-31T07:28:48;12.40;92.40
7606;DHT22;3844;53.360;9.738;2022-10-31T07:30:56;12.40;92.20
7606;DHT22;3844;53.360;9.738;2022-10-31T07:32:57;12.40;92.20
7606;DHT22;3844;53.360;9.738;2022-10-31T07:34:58;12.40;92.20
7606;DHT22;3844;53.360;9.738;2022-10-31T07:38:59;12.50;92.10
7606;DHT22;3844;53.360;9.738;2022-10-31T07:41:02;12.50;92.10
7606;DHT22;3844;53.360;9.738;2022-10-31T07:43:03;12.60;92.10
7606;DHT22;3844;53.360;9.738;2022-10-31T07:45:05;12.60;92.10
7606;DHT22;3844;53.360;9.738;2022-10-31T07:47:06;12.60;92.10
7606;DHT22;3844;53.360;9.738;2022-10-31T07:51:07;12.70;92.10
7606;DHT22;3844;53.360;9.738;2022-10-31T07:53:10;12.70;92.00
7606;DHT22;3844;53.360;9.738;2022-10-31T07:55:12;12.80;92.00
7606;DHT22;3844;53.360;9.738;2022-10-31T07:57:12;12.90;92.10
7606;DHT22;3844;53.360;9.738;2022-10-31T07:59:13;12.90;92.00
7606;DHT22;3844;53.360;9.738;2022-10-31T08:01:14;12.90;92.00
7606;DHT22;3844;53.360;9.738;2022-10-31T08:03:18;12.90;92.10
7606;DHT22;3844;53.360;9.738;2022-10-31T08:05:19;13.00;92.10
7606;DHT22;3844;53.360;9.738;2022-10-31T08:07:20;13.00;92.10
7606;DHT22;3844;53.360;9.738;2022-10-31T08:09:20;12.90;92.20
7606;DHT22;3844;53.360;9.738;2022-10-31T08:11:21;13.00;92.10
7606;DHT22;3844;53.360;9.738;2022-10-31T08:13:22;13.00;92.20
7606;DHT22;3844;53.360;9.738;2022-10-31T08:15:23;12.90;92.20
7606;DHT22;3844;53.360;9.738;2022-10-31T08:17:24;12.90;92.30
7606;DHT22;3844;53.360;9.738;2022-10-31T08:19:25;12.90;92.30
7606;DHT22;3844;53.360;9.738;2022-10-31T08:21:25;12.80;92.20
7606;DHT22;3844;53.360;9.738;2022-10-31T08:23:26;12.90;92.20
7606;DHT22;3844;53.360;9.738;2022-10-31T08:25:29;12.90;92.20
7606;DHT22;3844;53.360;9.738;2022-10-31T08:27:30;12.90;92.10
7606;DHT22;3844;53.360;9.738;2022-10-31T08:29:30;12.90;92.10
7606;DHT22;3844;53.360;9.738;2022-10-31T08:31:31;12.90;92.20
7606;DHT22;3844;53.360;9.738;2022-10-31T08:33:32;13.00;92.20
7606;DHT22;3844;53.360;9.738;2022-10-31T08:35:33;12.90;92.20
7606;DHT22;3844;53.360;9.738;2022-10-31T08:37:34;12.90;92.40
7606;DHT22;3844;53.360;9.738;2022-10-31T08:39:34;12.90;92.30
7606;DHT22;3844;53.360;9.738;2022-10-31T08:41:35;12.90;92.30
7606;DHT22;3844;53.360;9.738;2022-10-31T08:45:37;12.90;92.20
7606;DHT22;3844;53.360;9.738;2022-10-31T08:47:37;13.00;92.20
7606;DHT22;3844;53.360;9.738;2022-10-31T08:49:38;13.00;92.00
7606;DHT22;3844;53.360;9.738;2022-10-31T08:51:39;13.10;92.00
7606;DHT22;3844;53.360;9.738;2022-10-31T08:53:39;13.20;92.10
7606;DHT22;3844;53.360;9.738;2022-10-31T08:55:41;13.20;92.10
7606;DHT22;3844;53.360;9.738;2022-10-31T08:57:42;13.30;92.10
7606;DHT22;3844;53.360;9.738;2022-10-31T08:59:42;13.30;92.10
7606;DHT22;3844;53.360;9.738;2022-10-31T09:01:44;13.30;92.80
7606;DHT22;3844;53.360;9.738;2022-10-31T09:03:45;13.30;92.40
7606;DHT22;3844;53.360;9.738;2022-10-31T09:05:46;13.40;92.40
7606;DHT22;3844;53.360;9.738;2022-10-31T09:07:47;13.40;92.30
7606;DHT22;3844;53.360;9.738;2022-10-31T09:09:47;13.50;92.20
7606;DHT22;3844;53.360;9.738;2022-10-31T09:11:48;13.50;92.50
7606;DHT22;3844;53.360;9.738;2022-10-31T09:13:49;13.60;92.60
7606;DHT22;3844;53.360;9.738;2022-10-31T09:15:50;13.60;92.50
7606;DHT22;3844;53.360;9.738;2022-10-31T09:17:51;13.70;92.40
7606;DHT22;3844;53.360;9.738;2022-10-31T09:19:52;13.80;92.30
7606;DHT22;3844;53.360;9.738;2022-10-31T09:21:53;13.90;92.30
7606;DHT22;3844;53.360;9.738;2022-10-31T09:23:54;14.00;92.40
7606;DHT22;3844;53.360;9.738;2022-10-31T09:25:55;14.00;92.40
7606;DHT22;3844;53.360;9.738;2022-10-31T09:28:03;14.10;92.80
7606;DHT22;3844;53.360;9.738;2022-10-31T09:30:05;14.00;93.70
7606;DHT22;3844;53.360;9.738;2022-10-31T09:32:05;14.00;93.10
7606;DHT22;3844;53.360;9.738;2022-10-31T09:34:06;14.00;93.30
7606;DHT22;3844;53.360;9.738;2022-10-31T09:36:07;14.00;93.10
7606;DHT22;3844;53.360;9.738;2022-10-31T09:38:12;14.10;92.90
7606;DHT22;3844;53.360;9.738;2022-10-31T09:40:15;14.10;92.90
7606;DHT22;3844;53.360;9.738;2022-10-31T09:44:58;14.20;93.30
7606;DHT22;3844;53.360;9.738;2022-10-31T09:51:40;14.20;93.70
7606;DHT22;3844;53.360;9.738;2022-10-31T09:55:51;14.20;94.10
7606;DHT22;3844;53.360;9.738;2022-10-31T09:57:53;14.10;94.40
7606;DHT22;3844;53.360;9.738;2022-10-31T09:59:54;14.10;94.40
7606;DHT22;3844;53.360;9.738;2022-10-31T10:06:28;14.20;93.90
7606;DHT22;3844;53.360;9.738;2022-10-31T10:08:32;14.20;94.20
7606;DHT22;3844;53.360;9.738;2022-10-31T10:10:49;14.20;94.30
7606;DHT22;3844;53.360;9.738;2022-10-31T10:17:25;14.20;94.50
7606;DHT22;3844;53.360;9.738;2022-10-31T10:26:22;14.00;94.60
7606;DHT22;3844;53.360;9.738;2022-10-31T10:28:35;14.00;94.60
7606;DHT22;3844;53.360;9.738;2022-10-31T10:30:42;13.90;94.80
7606;DHT22;3844;53.360;9.738;2022-10-31T10:32:58;13.90;94.50
7606;DHT22;3844;53.360;9.738;2022-10-31T10:35:17;14.00;94.50
7606;DHT22;3844;53.360;9.738;2022-10-31T10:37:36;14.00;94.50
7606;DHT22;3844;53.360;9.738;2022-10-31T10:39:41;14.10;94.50
7606;DHT22;3844;53.360;9.738;2022-10-31T10:41:46;14.10;94.50
7606;DHT22;3844;53.360;9.738;2022-10-31T10:43:49;14.10;94.90
7606;DHT22;3844;53.360;9.738;2022-10-31T10:48:55;14.10;94.80
7606;DHT22;3844;53.360;9.738;2022-10-31T10:50:59;14.20;94.90
7606;DHT22;3844;53.360;9.738;2022-10-31T10:57:55;14.20;94.60
7606;DHT22;3844;53.360;9.738;2022-10-31T11:00:05;14.20;95.10
7606;DHT22;3844;53.360;9.738;2022-10-31T11:02:37;14.30;94.90
7606;DHT22;3844;53.360;9.738;2022-10-31T11:04:39;14.40;95.00
7606;DHT22;3844;53.360;9.738;2022-10-31T11:06:41;14.50;95.10
7606;DHT22;3844;53.360;9.738;2022-10-31T11:08:42;14.60;95.30
7606;DHT22;3844;53.360;9.738;2022-10-31T11:10:42;14.70;95.70
7606;DHT22;3844;53.360;9.738;2022-10-31T11:12:57;14.70;95.70
7606;DHT22;3844;53.360;9.738;2022-10-31T11:15:07;14.70;95.70
7606;DHT22;3844;53.360;9.738;2022-10-31T11:17:17;14.70;95.70
7606;DHT22;3844;53.360;9.738;2022-10-31T11:19:22;14.70;95.70
7606;DHT22;3844;53.360;9.738;2022-10-31T11:21:29;14.70;95.70
7606;DHT22;3844;53.360;9.738;2022-10-31T11:23:30;14.70;95.70
7606;DHT22;3844;53.360;9.738;2022-10-31T11:25:31;14.70;95.70
7606;DHT22;3844;53.360;9.738;2022-10-31T11:27:32;14.70;95.70
7606;DHT22;3844;53.360;9.738;2022-10-31T11:29:33;14.70;95.70
7606;DHT22;3844;53.360;9.738;2022-10-31T11:31:34;14.80;95.70
7606;DHT22;3844;53.360;9.738;2022-10-31T11:33:39;14.90;95.70
7606;DHT22;3844;53.360;9.738;2022-10-31T11:35:40;14.90;95.70
7606;DHT22;3844;53.360;9.738;2022-10-31T11:37:43;15.00;95.70
7606;DHT22;3844;53.360;9.738;2022-10-31T11:39:49;15.10;95.70
7606;DHT22;3844;53.360;9.738;2022-10-31T11:41:54;15.30;95.70
7606;DHT22;3844;53.360;9.738;2022-10-31T11:44:04;15.40;95.70
7606;DHT22;3844;53.360;9.738;2022-10-31T11:46:13;15.50;95.70
7606;DHT22;3844;53.360;9.738;2022-10-31T11:48:20;15.50;95.70
7606;DHT22;3844;53.360;9.738;2022-10-31T11:50:23;15.50;95.70
7606;DHT22;3844;53.360;9.738;2022-10-31T11:52:30;15.50;95.70
7606;DHT22;3844;53.360;9.738;2022-10-31T11:56:48;15.60;95.70
7606;DHT22;3844;53.360;9.738;2022-10-31T11:59:05;15.50;95.70
7606;DHT22;3844;53.360;9.738;2022-10-31T12:01:08;15.40;95.70
7606;DHT22;3844;53.360;9.738;2022-10-31T12:05:26;15.30;95.70
7606;DHT22;3844;53.360;9.738;2022-10-31T12:07:33;15.30;95.70
7606;DHT22;3844;53.360;9.738;2022-10-31T12:09:35;15.40;95.70
7606;DHT22;3844;53.360;9.738;2022-10-31T12:14:28;15.60;95.70
7606;DHT22;3844;53.360;9.738;2022-10-31T12:16:39;15.60;95.70
7606;DHT22;3844;53.360;9.738;2022-10-31T12:30:20;15.80;95.70
7606;DHT22;3844;53.360;9.738;2022-10-31T12:35:26;15.90;95.70
7606;DHT22;3844;53.360;9.738;2022-10-31T12:37:38;16.00;95.70
7606;DHT22;3844;53.360;9.738;2022-10-31T12:39:51;16.00;95.70
7606;DHT22;3844;53.360;9.738;2022-10-31T12:42:13;15.90;95.70
7606;DHT22;3844;53.360;9.738;2022-10-31T12:49:33;15.70;95.70
7606;DHT22;3844;53.360;9.738;2022-10-31T12:58:45;15.70;95.70
7606;DHT22;3844;53.360;9.738;2022-10-31T13:00:55;15.80;95.70
7606;DHT22;3844;53.360;9.738;2022-10-31T13:03:31;15.80;95.70
7606;DHT22;3844;53.360;9.738;2022-10-31T13:05:39;15.90;95.70
7606;DHT22;3844;53.360;9.738;2022-10-31T13:07:52;16.00;95.70
7606;DHT22;3844;53.360;9.738;2022-10-31T13:09:59;16.10;95.70
7606;DHT22;3844;53.360;9.738;2022-10-31T13:12:10;16.30;95.70
7606;DHT22;3844;53.360;9.738;2022-10-31T13:14:56;16.50;95.70
7606;DHT22;3844;53.360;9.738;2022-10-31T13:16:55;16.80;95.70
7606;DHT22;3844;53.360;9.738;2022-10-31T13:19:01;17.00;95.70
7606;DHT22;3844;53.360;9.738;2022-10-31T13:21:08;17.10;95.70
7606;DHT22;3844;53.360;9.738;2022-10-31T13:25:28;17.20;95.70
7606;DHT22;3844;53.360;9.738;2022-10-31T13:32:07;17.30;95.70
7606;DHT22;3844;53.360;9.738;2022-10-31T13:34:28;17.20;95.40
7606;DHT22;3844;53.360;9.738;2022-10-31T13:36:40;17.00;95.70
7606;DHT22;3844;53.360;9.738;2022-10-31T13:45:53;16.30;95.70
7606;DHT22;3844;53.360;9.738;2022-10-31T13:48:37;16.30;95.70
7606;DHT22;3844;53.360;9.738;2022-10-31T13:50:39;16.30;95.70
7606;DHT22;3844;53.360;9.738;2022-10-31T13:52:39;16.30;95.70
7606;DHT22;3844;53.360;9.738;2022-10-31T13:54:45;16.30;95.70
7606;DHT22;3844;53.360;9.738;2022-10-31T13:56:50;16.20;95.70
7606;DHT22;3844;53.360;9.738;2022-10-31T13:58:57;16.30;95.70
7606;DHT22;3844;53.360;9.738;2022-10-31T14:03:19;16.30;95.70
7606;DHT22;3844;53.360;9.738;2022-10-31T14:05:31;16.30;95.70
7606;DHT22;3844;53.360;9.738;2022-10-31T14:07:32;16.30;95.70
7606;DHT22;3844;53.360;9.738;2022-10-31T14:11:35;16.10;95.70
7606;DHT22;3844;53.360;9.738;2022-10-31T14:13:41;16.00;95.70
7606;DHT22;3844;53.360;9.738;2022-10-31T14:15:55;15.90;95.70
7606;DHT22;3844;53.360;9.738;2022-10-31T14:18:02;15.90;95.70
7606;DHT22;3844;53.360;9.738;2022-10-31T14:22:23;15.70;95.70
7606;DHT22;3844;53.360;9.738;2022-10-31T14:28:34;15.40;95.70
7606;DHT22;3844;53.360;9.738;2022-10-31T14:30:36;15.40;95.70
7606;DHT22;3844;53.360;9.738;2022-10-31T14:32:36;15.30;95.70
7606;DHT22;3844;53.360;9.738;2022-10-31T14:34:41;15.20;95.70
7606;DHT22;3844;53.360;9.738;2022-10-31T14:36:56;15.20;95.70
7606;DHT22;3844;53.360;9.738;2022-10-31T14:39:02;15.10;95.70
7606;DHT22;3844;53.360;9.738;2022-10-31T14:42:21;15.10;95.70
7606;DHT22;3844;53.360;9.738;2022-10-31T14:46:31;15.00;95.70
7606;DHT22;3844;53.360;9.738;2022-10-31T14:50:55;14.90;95.70
7606;DHT22;3844;53.360;9.738;2022-10-31T14:52:57;14.90;95.70
7606;DHT22;3844;53.360;9.738;2022-10-31T14:55:01;14.80;95.70
7606;DHT22;3844;53.360;9.738;2022-10-31T14:57:15;14.70;95.70
7606;DHT22;3844;53.360;9.738;2022-10-31T14:59:20;14.70;95.70
7606;DHT22;3844;53.360;9.738;2022-10-31T15:01:27;14.70;95.70
7606;DHT22;3844;53.360;9.738;2022-10-31T15:03:40;14.60;95.70
7606;DHT22;3844;53.360;9.738;2022-10-31T15:05:52;14.60;95.70
7606;DHT22;3844;53.360;9.738;2022-10-31T15:07:54;14.60;95.70
7606;DHT22;3844;53.360;9.738;2022-10-31T15:10:01;14.60;95.70
7606;DHT22;3844;53.360;9.738;2022-10-31T15:12:37;14.50;95.70
7606;DHT22;3844;53.360;9.738;2022-10-31T15:14:38;14.50;95.70
7606;DHT22;3844;53.360;9.738;2022-10-31T15:16:42;14.50;95.70
7606;DHT22;3844;53.360;9.738;2022-10-31T15:20:53;14.40;95.70
7606;DHT22;3844;53.360;9.738;2022-10-31T15:22:56;14.40;95.70
7606;DHT22;3844;53.360;9.738;2022-10-31T15:24:57;14.40;95.70
7606;DHT22;3844;53.360;9.738;2022-10-31T15:26:58;14.30;95.70
7606;DHT22;3844;53.360;9.738;2022-10-31T15:29:04;14.30;95.70
7606;DHT22;3844;53.360;9.738;2022-10-31T15:31:05;14.20;95.70
7606;DHT22;3844;53.360;9.738;2022-10-31T15:33:25;14.20;95.70
7606;DHT22;3844;53.360;9.738;2022-10-31T15:35:28;14.10;95.70
7606;DHT22;3844;53.360;9.738;2022-10-31T15:37:29;14.00;95.70
7606;DHT22;3844;53.360;9.738;2022-10-31T15:39:31;14.00;95.70
7606;DHT22;3844;53.360;9.738;2022-10-31T15:41:34;13.90;95.70
7606;DHT22;3844;53.360;9.738;2022-10-31T15:43:37;13.90;95.70
7606;DHT22;3844;53.360;9.738;2022-10-31T15:45:42;13.90;95.70
7606;DHT22;3844;53.360;9.738;2022-10-31T15:47:56;13.90;95.70
7606;DHT22;3844;53.360;9.738;2022-10-31T15:49:59;13.80;95.70
7606;DHT22;3844;53.360;9.738;2022-10-31T15:54:28;13.70;95.70
7606;DHT22;3844;53.360;9.738;2022-10-31T15:56:30;13.70;95.70
7606;DHT22;3844;53.360;9.738;2022-10-31T15:58:33;13.70;95.70
7606;DHT22;3844;53.360;9.738;2022-10-31T16:00:39;13.70;95.70
7606;DHT22;3844;53.360;9.738;2022-10-31T16:02:40;13.70;95.70
7606;DHT22;3844;53.360;9.738;2022-10-31T16:04:58;13.60;95.70
7606;DHT22;3844;53.360;9.738;2022-10-31T16:07:15;13.60;95.70
7606;DHT22;3844;53.360;9.738;2022-10-31T16:09:23;13.60;95.70
7606;DHT22;3844;53.360;9.738;2022-10-31T16:13:36;13.60;95.70
7606;DHT22;3844;53.360;9.738;2022-10-31T16:15:37;13.50;95.70
7606;DHT22;3844;53.360;9.738;2022-10-31T16:17:41;13.50;95.70
7606;DHT22;3844;53.360;9.738;2022-10-31T16:20:04;13.50;95.70
7606;DHT22;3844;53.360;9.738;2022-10-31T16:22:11;13.50;95.70
7606;DHT22;3844;53.360;9.738;2022-10-31T16:24:43;13.50;95.70
7606;DHT22;3844;53.360;9.738;2022-10-31T16:26:33;13.40;95.70
7606;DHT22;3844;53.360;9.738;2022-10-31T16:28:35;13.40;95.70
7606;DHT22;3844;53.360;9.738;2022-10-31T16:30:42;13.40;95.70
7606;DHT22;3844;53.360;9.738;2022-10-31T16:32:56;13.40;95.70
7606;DHT22;3844;53.360;9.738;2022-10-31T16:37:09;13.30;95.70